Time;durP1;ratioP1;P1;durP2;ratioP2;P2;SDS_P1;SDS_P2;PMS_P1;PMS_P2;Temp;Humidity;BMP_temperature;BMP_pressure;BME280_temperature;BME280_humidity;BME280_pressure;Samples;Min_cycle;Max_cycle;Signal;HPM_P1;HPM_P2
2021/01/21 00:01:20;;;;;;;20.85;12.57;;;;;;;2.47;78.24;95579.22;5075636;28;20213;-78
2021/01/21 00:03:47;;;;;;;21.65;13.35;;;;;;;2.47;77.45;95575.78;5057006;28;20264;-78
2021/01/21 00:06:14;;;;;;;33.00;15.38;;;;;;;2.47;77.61;95584.41;5076045;28;20206;-78
2021/01/21 00:08:40;;;;;;;31.42;16.45;;;;;;;2.42;77.79;95580.31;5075817;28;20205;-78
2021/01/21 00:11:07;;;;;;;37.33;18.02;;;;;;;2.39;77.84;95581.31;5075352;28;20205;-78
2021/01/21 00:13:33;;;;;;;32.95;18.00;;;;;;;2.35;78.08;95589.25;5075344;28;20659;-79
2021/01/21 00:16:00;;;;;;;37.83;16.73;;;;;;;2.34;77.89;95582.41;5056145;28;20240;-78
2021/01/21 00:18:28;;;;;;;27.73;15.23;;;;;;;2.33;78.23;95591.91;5040156;28;20205;-78
2021/01/21 00:20:54;;;;;;;28.80;17.08;;;;;;;2.35;78.13;95591.84;5075458;28;20217;-78
2021/01/21 00:23:21;;;;;;;41.08;19.15;;;;;;;2.37;77.68;95593.47;5075657;28;20236;-78
2021/01/21 00:25:50;;;;;;;37.63;19.70;;;;;;;2.36;77.79;95586.63;5075531;28;20198;-78
2021/01/21 00:28:17;;;;;;;46.10;23.35;;;;;;;2.32;77.90;95582.47;5075465;28;20291;-78
2021/01/21 00:30:43;;;;;;;52.67;21.25;;;;;;;2.24;78.37;95581.91;5040168;28;20210;-78
2021/01/21 00:33:10;;;;;;;43.17;19.30;;;;;;;2.16;78.66;95591.75;5039810;28;20206;-78
2021/01/21 00:35:37;;;;;;;43.63;21.17;;;;;;;2.12;79.59;95590.19;5075579;28;20554;-79
2021/01/21 00:38:04;;;;;;;39.83;20.65;;;;;;;2.10;79.61;95579.06;5075061;28;20673;-78
2021/01/21 00:40:30;;;;;;;45.38;20.23;;;;;;;2.12;79.82;95574.66;5075331;28;20193;-78
2021/01/21 00:42:56;;;;;;;37.25;20.98;;;;;;;2.15;79.62;95580.56;5074819;28;20206;-78
2021/01/21 00:45:23;;;;;;;41.03;23.88;;;;;;;2.16;79.48;95577.06;5075293;28;20243;-78
2021/01/21 00:47:50;;;;;;;36.80;21.17;;;;;;;2.16;78.85;95571.88;5075013;28;20205;-78
2021/01/21 00:50:16;;;;;;;34.97;20.73;;;;;;;2.14;79.14;95570.28;5056231;28;20209;-78
2021/01/21 00:52:43;;;;;;;43.13;20.83;;;;;;;2.12;79.07;95564.31;5074938;28;20285;-78
2021/01/21 00:55:11;;;;;;;30.05;18.20;;;;;;;2.09;79.19;95565.28;5075240;28;20241;-78
2021/01/21 00:57:37;;;;;;;31.20;17.25;;;;;;;2.08;79.20;95563.59;5074951;28;20592;-78
2021/01/21 01:00:07;;;;;;;51.50;20.73;;;;;;;2.09;79.15;95556.69;5039215;28;20313;-78
2021/01/21 01:02:33;;;;;;;37.28;18.10;;;;;;;2.06;79.36;95559.41;5075213;28;20209;-78
2021/01/21 01:04:59;;;;;;;35.72;17.35;;;;;;;2.03;79.40;95554.34;5074918;28;20199;-78
2021/01/21 01:07:26;;;;;;;27.13;17.13;;;;;;;2.00;79.65;95554.44;5074891;28;20210;-78
2021/01/21 01:09:53;;;;;;;30.02;16.25;;;;;;;1.97;79.75;95544.22;5074898;28;20197;-78
2021/01/21 01:12:19;;;;;;;33.72;19.05;;;;;;;1.94;79.92;95555.53;5074778;28;20210;-78
2021/01/21 01:14:45;;;;;;;36.67;18.02;;;;;;;1.91;79.92;95554.81;5075054;28;20209;-78
2021/01/21 01:17:12;;;;;;;23.38;15.52;;;;;;;1.92;79.89;95549.59;5074362;28;20209;-78
2021/01/21 01:19:38;;;;;;;33.13;17.65;;;;;;;1.92;79.57;95546.16;5074354;28;20202;-78
2021/01/21 01:22:04;;;;;;;37.58;15.88;;;;;;;1.89;79.50;95536.78;5074217;28;20293;-78
2021/01/21 01:24:31;;;;;;;20.73;14.43;;;;;;;1.94;79.77;95541.75;5073961;28;20260;-78
2021/01/21 01:26:58;;;;;;;29.15;15.77;;;;;;;1.99;79.70;95540.66;5073909;28;20534;-78
2021/01/21 01:29:24;;;;;;;27.08;14.27;;;;;;;1.98;79.46;95535.56;5074515;28;20198;-78
2021/01/21 01:31:50;;;;;;;26.27;15.23;;;;;;;1.97;79.40;95539.03;5074171;28;20329;-79
2021/01/21 01:34:17;;;;;;;33.05;14.75;;;;;;;1.98;79.77;95535.56;5074612;28;20252;-78
2021/01/21 01:36:43;;;;;;;30.02;15.75;;;;;;;1.98;79.63;95535.56;5073953;28;20242;-78
2021/01/21 01:39:09;;;;;;;29.73;14.85;;;;;;;1.99;79.52;95539.81;5074030;28;20206;-78
2021/01/21 01:41:36;;;;;;;25.63;14.70;;;;;;;1.96;79.58;95538.19;5074020;28;20213;-78
2021/01/21 01:44:03;;;;;;;31.08;15.98;;;;;;;1.93;79.82;95534.91;5074339;28;20205;-77
2021/01/21 01:46:31;;;;;;;27.77;15.43;;;;;;;1.84;80.29;95533.53;5073978;28;20194;-78
2021/01/21 01:48:59;;;;;;;25.73;15.23;;;;;;;1.85;80.39;95528.31;5073796;28;20202;-78
2021/01/21 01:51:25;;;;;;;23.75;14.93;;;;;;;1.88;80.27;95534.25;5073978;28;20206;-78
2021/01/21 01:53:52;;;;;;;23.50;14.98;;;;;;;1.90;80.37;95528.09;5073410;28;20204;-78
2021/01/21 01:56:18;;;;;;;29.08;14.80;;;;;;;1.91;80.30;95528.94;5073773;28;20577;-78
2021/01/21 01:58:45;;;;;;;21.05;13.55;;;;;;;1.88;80.35;95523.91;5073808;28;20194;-77
2021/01/21 02:01:14;;;;;;;23.42;13.52;;;;;;;1.88;80.47;95529.91;5082952;28;20206;-77
2021/01/21 02:03:41;;;;;;;25.35;13.02;;;;;;;1.77;80.54;95535.53;5081462;28;20196;-77
2021/01/21 02:06:07;;;;;;;25.75;14.43;;;;;;;1.83;80.46;95522.34;5073796;28;20201;-78
2021/01/21 02:08:34;;;;;;;23.90;13.60;;;;;;;1.82;80.59;95530.19;5073284;28;20206;-77
2021/01/21 02:11:04;;;;;;;30.85;16.38;;;;;;;1.77;80.07;95530.38;5073502;28;20530;-78
2021/01/21 02:13:46;;;;;;;67.07;24.33;;;;;;;1.34;81.07;95522.59;5073162;28;20202;-78
2021/01/21 02:16:29;;;;;;;50.35;24.88;;;;;;;1.35;80.60;95526.88;5054447;28;20716;-78
2021/01/21 02:19:20;;;;;;;43.70;22.77;;;;;;;1.38;80.55;95524.16;5073138;28;20547;-77
2021/01/21 02:22:21;;;;;;;45.65;26.00;;;;;;;1.33;81.18;95520.91;5073626;28;20237;-78
2021/01/21 02:25:08;;;;;;;46.55;22.77;;;;;;;1.36;80.98;95521.63;5069963;28;20657;-78
2021/01/21 02:28:01;;;;;;;42.60;26.13;;;;;;;1.40;80.80;95520.63;5073785;28;20248;-78
2021/01/21 02:30:41;;;;;;;48.40;25.40;;;;;;;1.42;79.87;95525.72;5072928;28;20206;-78
2021/01/21 02:33:19;;;;;;;43.55;25.88;;;;;;;1.44;79.85;95522.19;5037924;28;20194;-78
2021/01/21 02:35:49;;;;;;;48.08;26.63;;;;;;;1.46;79.93;95525.56;5054400;28;20232;-78
2021/01/21 02:38:19;;;;;;;49.17;27.38;;;;;;;1.50;80.03;95526.28;5073323;28;20248;-78
2021/01/21 02:40:48;;;;;;;52.10;26.67;;;;;;;1.57;79.90;95529.47;5072913;28;20205;-77
2021/01/21 02:43:15;;;;;;;46.45;26.15;;;;;;;1.51;79.76;95525.38;5054503;28;20263;-78
2021/01/21 02:45:41;;;;;;;56.33;31.02;;;;;;;1.46;79.63;95527.31;5073257;28;20201;-78
2021/01/21 02:48:08;;;;;;;49.35;26.98;;;;;;;1.43;79.74;95533.41;5072828;28;20198;-78
2021/01/21 02:50:36;;;;;;;45.28;23.45;;;;;;;1.46;79.67;95527.31;5072856;28;20644;-78
2021/01/21 02:53:05;;;;;;;46.65;23.73;;;;;;;1.46;79.53;95516.97;5037398;28;20198;-78
2021/01/21 02:55:37;;;;;;;39.47;19.90;;;;;;;1.48;80.24;95533.25;5072861;28;20222;-78
2021/01/21 02:58:08;;;;;;;30.17;17.98;;;;;;;1.50;80.12;95532.31;5072504;28;20615;-78
2021/01/21 03:00:36;;;;;;;29.40;16.80;;;;;;;1.51;79.51;95520.22;5072845;28;20200;-78
2021/01/21 03:03:08;;;;;;;25.17;15.93;;;;;;;1.51;80.00;95520.22;5073070;28;20206;-78
2021/01/21 03:05:35;;;;;;;25.70;14.80;;;;;;;1.52;80.30;95516.72;5073205;28;20202;-77
2021/01/21 03:08:02;;;;;;;24.63;14.77;;;;;;;1.55;80.27;95522.63;5073032;28;20653;-78
2021/01/21 03:10:29;;;;;;;22.98;12.43;;;;;;;1.57;80.36;95514.78;5072748;28;20205;-78
2021/01/21 03:12:56;;;;;;;20.88;12.18;;;;;;;1.59;80.57;95523.34;5072753;28;20202;-78
2021/01/21 03:15:23;;;;;;;22.38;13.93;;;;;;;1.61;80.34;95516.34;5053913;28;20250;-78
2021/01/21 03:17:50;;;;;;;27.77;15.82;;;;;;;1.66;80.39;95518.75;5072763;28;20194;-78
2021/01/21 03:20:17;;;;;;;22.10;13.40;;;;;;;1.66;79.93;95524.75;5072770;28;20206;-78
2021/01/21 03:22:44;;;;;;;26.83;15.15;;;;;;;1.67;80.05;95525.59;5072605;28;20324;-78
2021/01/21 03:25:11;;;;;;;25.95;15.05;;;;;;;1.68;80.14;95509.19;5072790;28;20212;-78
2021/01/21 03:27:39;;;;;;;26.45;14.13;;;;;;;1.69;79.93;95519.47;5072781;28;20204;-78
2021/01/21 03:30:07;;;;;;;25.42;15.45;;;;;;;1.71;79.44;95514.22;5072482;28;20622;-78
2021/01/21 03:32:34;;;;;;;28.13;16.45;;;;;;;1.67;78.80;95520.44;5037565;28;20343;-78
2021/01/21 03:35:00;;;;;;;30.20;15.85;;;;;;;1.63;79.21;95521.47;5072853;28;20198;-77
2021/01/21 03:37:27;;;;;;;26.48;16.70;;;;;;;1.58;79.77;95526.81;5072641;28;20680;-78
2021/01/21 03:39:53;;;;;;;31.58;17.13;;;;;;;1.54;79.79;95522.69;5072570;28;20217;-80
2021/01/21 03:42:19;;;;;;;26.05;15.93;;;;;;;1.50;79.80;95528.88;5072826;28;20213;-78
2021/01/21 03:44:46;;;;;;;24.08;14.30;;;;;;;1.55;80.08;95532.13;5072832;28;20202;-80
2021/01/21 03:47:14;;;;;;;23.42;13.32;;;;;;;1.54;80.05;95541.63;5072709;28;20206;-80
2021/01/21 03:49:40;;;;;;;24.50;12.77;;;;;;;1.58;80.08;95532.00;5075970;28;20200;-78
2021/01/21 03:52:06;;;;;;;24.02;16.27;;;;;;;1.62;79.87;95532.72;5075210;28;20932;-77
2021/01/21 03:54:33;;;;;;;28.45;16.33;;;;;;;1.67;79.35;95525.59;5076465;28;20205;-78
2021/01/21 03:56:59;;;;;;;27.60;17.63;;;;;;;1.63;79.29;95540.41;5076000;28;20248;-78
2021/01/21 03:59:25;;;;;;;32.92;19.20;;;;;;;1.58;79.43;95534.59;5076567;28;20194;-78
2021/01/21 04:01:53;;;;;;;24.92;17.75;;;;;;;1.49;79.70;95538.38;5075944;28;20202;-78
2021/01/21 04:04:19;;;;;;;25.20;15.00;;;;;;;1.48;80.29;95539.28;5041028;28;20194;-78
2021/01/21 04:06:45;;;;;;;32.58;15.55;;;;;;;1.48;80.17;95533.25;5075928;28;20563;-78
2021/01/21 04:09:12;;;;;;;33.75;17.30;;;;;;;1.50;80.23;95536.63;5075942;28;20205;-78
2021/01/21 04:11:38;;;;;;;30.65;17.67;;;;;;;1.49;80.03;95535.78;5075677;28;20205;-79
2021/01/21 04:14:04;;;;;;;26.50;14.23;;;;;;;1.51;79.54;95546.91;5075758;28;20213;-78
2021/01/21 04:16:30;;;;;;;31.17;16.67;;;;;;;1.50;79.50;95528.88;5075763;28;20223;-78
2021/01/21 04:18:58;;;;;;;50.05;22.00;;;;;;;1.45;79.70;95541.16;5075925;28;20213;-78
2021/01/21 04:21:24;;;;;;;66.65;24.75;;;;;;;1.35;79.54;95540.63;5023747;28;20213;-78
2021/01/21 04:23:54;;;;;;;61.58;25.02;;;;;;;1.27;80.17;95544.44;5075255;28;20265;-78
2021/01/21 04:26:20;;;;;;;45.42;23.95;;;;;;;1.28;80.31;95543.53;5076020;28;20202;-78
2021/01/21 04:28:47;;;;;;;43.80;19.77;;;;;;;1.19;79.86;95544.72;5040201;28;20211;-78
2021/01/21 04:31:13;;;;;;;44.15;20.48;;;;;;;1.15;80.73;95553.47;5075968;28;20207;-78
2021/01/21 04:33:39;;;;;;;43.97;21.23;;;;;;;1.12;79.99;95544.09;5075450;28;20211;-78
2021/01/21 04:36:07;;;;;;;42.83;21.25;;;;;;;1.10;80.62;95550.22;5075304;28;20609;-79
2021/01/21 04:38:33;;;;;;;33.35;17.98;;;;;;;1.13;80.52;95550.09;5075331;28;20208;-79
2021/01/21 04:41:00;;;;;;;30.23;17.45;;;;;;;1.13;80.10;95543.19;5075380;28;20550;-78
2021/01/21 04:43:27;;;;;;;35.15;17.75;;;;;;;1.14;80.09;95544.88;5075558;28;20210;-78
2021/01/21 04:45:53;;;;;;;36.03;18.15;;;;;;;1.19;80.41;95550.75;5075348;28;20234;-78
2021/01/21 04:48:21;;;;;;;35.90;18.02;;;;;;;1.22;80.19;95540.28;5075547;28;20236;-78
2021/01/21 04:50:48;;;;;;;31.25;17.10;;;;;;;1.16;80.35;95553.44;5039681;28;20285;-78
2021/01/21 04:53:18;;;;;;;36.75;19.15;;;;;;;1.16;79.81;95561.19;5074971;28;20265;-78
2021/01/21 04:55:47;;;;;;;31.65;17.67;;;;;;;1.16;79.87;95556.03;5074899;28;20228;-78
2021/01/21 04:58:18;;;;;;;30.02;17.55;;;;;;;1.18;80.00;95554.22;5074801;28;20210;-78
2021/01/21 05:00:45;;;;;;;31.60;16.67;;;;;;;1.20;79.85;95552.41;5055473;28;20251;-78
2021/01/21 05:03:12;;;;;;;29.35;17.38;;;;;;;1.23;79.65;95554.03;5062887;28;20207;-79
2021/01/21 05:05:39;;;;;;;37.75;20.45;;;;;;;1.26;80.07;95563.41;5054711;28;20249;-78
2021/01/21 05:08:06;;;;;;;32.80;17.35;;;;;;;1.28;79.80;95556.44;5054695;28;20211;-79
2021/01/21 05:10:34;;;;;;;40.65;19.10;;;;;;;1.31;79.41;95554.59;5026386;28;20200;-78
2021/01/21 05:13:00;;;;;;;31.73;17.50;;;;;;;1.24;79.36;95548.81;5056982;28;20217;-78
2021/01/21 05:15:27;;;;;;;23.60;14.82;;;;;;;1.19;80.46;95550.75;5054493;28;20240;-78
2021/01/21 05:17:53;;;;;;;31.10;17.30;;;;;;;1.21;80.42;95551.53;5035715;28;20203;-78
2021/01/21 05:20:23;;;;;;;26.67;17.45;;;;;;;1.23;80.28;95551.47;5054357;28;20207;-78
2021/01/21 05:22:49;;;;;;;34.03;18.92;;;;;;;1.28;80.14;95546.94;5054447;28;20245;-78
2021/01/21 05:25:16;;;;;;;36.83;19.58;;;;;;;1.31;79.93;95546.84;5054563;28;20195;-78
2021/01/21 05:27:43;;;;;;;26.52;14.98;;;;;;;1.34;79.92;95549.28;5054104;28;20252;-78
2021/01/21 05:30:10;;;;;;;39.35;17.90;;;;;;;1.37;79.60;95551.75;5054224;28;20217;-78
2021/01/21 05:32:37;;;;;;;29.30;18.48;;;;;;;1.36;79.20;95544.06;5019267;28;20203;-79
2021/01/21 05:35:05;;;;;;;28.45;18.20;;;;;;;1.36;79.29;95546.66;5018777;28;20205;-79
2021/01/21 05:37:38;;;;;;;35.45;21.75;;;;;;;1.28;79.72;95549.53;5053773;28;20226;-78
2021/01/21 05:40:06;;;;;;;25.92;17.05;;;;;;;1.27;80.13;95537.50;5054160;28;20244;-78
2021/01/21 05:42:36;;;;;;;28.10;18.75;;;;;;;1.28;80.21;95539.19;5019038;28;20207;-78
2021/01/21 05:45:04;;;;;;;25.15;16.85;;;;;;;1.28;80.50;95544.38;5018535;28;20206;-78
2021/01/21 05:47:31;;;;;;;34.38;20.20;;;;;;;1.29;80.90;95545.22;5054120;28;20272;-78
2021/01/21 05:49:57;;;;;;;35.90;22.05;;;;;;;1.29;81.03;95532.28;5053673;28;20206;-79
2021/01/21 05:52:25;;;;;;;48.05;21.48;;;;;;;1.26;81.63;95541.00;5054049;28;20208;-78
2021/01/21 05:54:52;;;;;;;37.90;20.25;;;;;;;1.23;81.63;95531.63;5053804;28;20657;-81
2021/01/21 05:57:19;;;;;;;38.30;21.52;;;;;;;1.27;82.00;95526.34;5053858;28;20223;-79
2021/01/21 05:59:47;;;;;;;30.38;20.60;;;;;;;1.29;81.43;95534.88;5053537;28;20202;-78
2021/01/21 06:02:18;;;;;;;34.88;19.40;;;;;;;1.30;80.96;95532.22;5053751;28;20225;-78
2021/01/21 06:04:48;;;;;;;38.05;22.73;;;;;;;1.30;80.69;95534.81;5053460;28;20207;-79
2021/01/21 06:07:21;;;;;;;40.38;20.92;;;;;;;1.30;80.75;95532.22;5053373;28;20289;-80
2021/01/21 06:09:48;;;;;;;37.55;21.45;;;;;;;1.32;81.13;95538.19;5053634;28;20526;-79
2021/01/21 06:12:14;;;;;;;32.13;18.42;;;;;;;1.37;81.71;95540.56;5053354;28;20199;-79
2021/01/21 06:14:41;;;;;;;35.45;19.80;;;;;;;1.42;81.49;95541.25;5034691;28;20575;-80
2021/01/21 06:17:08;;;;;;;32.58;17.90;;;;;;;1.46;81.27;95545.41;5053525;28;20265;-79
2021/01/21 06:19:35;;;;;;;47.35;23.77;;;;;;;1.46;81.68;95551.44;5018420;28;20206;-80
2021/01/21 06:22:07;;;;;;;58.20;34.00;;;;;;;1.48;81.64;95549.63;5052969;28;20285;-79
2021/01/21 06:24:42;;;;;;;53.00;32.08;;;;;;;1.53;81.80;95549.44;5052579;28;20659;-79
2021/01/21 06:27:10;;;;;;;47.78;24.58;;;;;;;1.58;81.38;95552.69;5053207;28;20230;-78
2021/01/21 06:29:38;;;;;;;51.03;31.00;;;;;;;1.67;80.74;95554.91;5053434;28;20299;-80
2021/01/21 06:32:08;;;;;;;59.42;33.60;;;;;;;1.61;80.57;95556.88;5053094;28;20230;-79
2021/01/21 06:34:39;;;;;;;71.47;37.17;;;;;;;1.59;80.46;95562.13;5053058;28;20597;-79
2021/01/21 06:37:11;;;;;;;75.13;40.47;;;;;;;1.59;80.25;95551.78;5052915;28;20262;-79
2021/01/21 06:39:51;;;;;;;89.35;43.13;;;;;;;1.52;80.38;95558.94;5056176;28;20327;-79
2021/01/21 06:42:21;;;;;;;77.93;43.78;;;;;;;1.57;80.80;95578.59;5072684;28;20201;-79
2021/01/21 06:44:50;;;;;;;89.97;43.13;;;;;;;1.50;80.92;95568.50;5073104;28;20202;-80
2021/01/21 06:47:17;;;;;;;73.13;41.58;;;;;;;1.44;81.02;95565.28;5072758;28;20198;-79
2021/01/21 06:49:46;;;;;;;59.97;32.83;;;;;;;1.31;81.43;95570.09;5055983;28;20207;-78
2021/01/21 06:52:14;;;;;;;63.13;33.88;;;;;;;1.07;82.99;95571.00;5053179;28;20209;-79
2021/01/21 06:54:41;;;;;;;61.30;38.13;;;;;;;1.02;83.28;95588.44;5052926;28;20713;-79
2021/01/21 06:57:40;;;;;;;73.20;36.78;;;;;;;0.92;83.23;95575.00;5052941;28;20230;-81
2021/01/21 07:00:08;;;;;;;69.97;38.05;;;;;;;0.84;85.21;95571.84;5053362;28;20547;-80
2021/01/21 07:02:42;;;;;;;68.35;36.13;;;;;;;1.00;93.42;95565.22;5052822;28;20253;-80
2021/01/21 07:05:11;;;;;;;77.30;37.88;;;;;;;0.72;86.16;95567.97;5052688;28;20203;-80
2021/01/21 07:08:00;;;;;;;56.58;29.52;;;;;;;0.46;85.09;95568.88;5052753;28;20207;-79
2021/01/21 07:10:29;;;;;;;54.58;29.60;;;;;;;0.28;86.57;95566.91;5052604;28;20212;-79
2021/01/21 07:12:56;;;;;;;48.10;26.50;;;;;;;0.45;86.09;95562.03;5052908;28;20206;-79
2021/01/21 07:15:30;;;;;;;56.65;26.95;;;;;;;0.51;85.77;95568.72;5052548;28;20206;-79
2021/01/21 07:18:02;;;;;;;47.45;27.35;;;;;;;0.58;86.50;95568.47;5052588;28;20304;-78
2021/01/21 07:20:32;;;;;;;51.60;27.05;;;;;;;0.75;87.13;95570.44;5052634;28;20295;-79
2021/01/21 07:23:06;;;;;;;58.67;30.90;;;;;;;0.93;86.45;95564.63;5053193;28;20237;-79
2021/01/21 07:25:33;;;;;;;54.00;31.33;;;;;;;1.07;86.16;95571.84;5056561;28;20664;-80
2021/01/21 07:28:08;;;;;;;48.47;29.45;;;;;;;1.26;85.87;95563.41;5021300;28;20207;-78
2021/01/21 07:30:37;;;;;;;52.30;29.70;;;;;;;1.47;85.48;95570.38;5056326;28;20237;-80
2021/01/21 07:33:23;;;;;;;58.85;35.58;;;;;;;1.63;84.58;95580.94;5056592;28;20205;-79
2021/01/21 07:35:51;;;;;;;71.43;38.78;;;;;;;1.69;83.80;95567.78;5056707;28;20223;-81
2021/01/21 07:38:49;;;;;;;65.57;38.05;;;;;;;1.85;83.69;95582.63;5056469;28;20210;-80
2021/01/21 07:41:53;;;;;;;73.93;39.33;;;;;;;1.95;82.76;95582.25;5056657;28;20203;-80
2021/01/21 07:44:20;;;;;;;66.13;39.60;;;;;;;2.03;82.54;95581.06;5056495;28;20289;-80
2021/01/21 07:46:47;;;;;;;79.35;37.25;;;;;;;2.15;82.98;95579.72;5056523;28;20206;-79
2021/01/21 07:49:25;;;;;;;60.25;38.20;;;;;;;2.23;83.09;95581.97;5055845;28;20686;-79
2021/01/21 07:52:03;;;;;;;70.50;36.55;;;;;;;2.29;82.70;95582.56;5056016;28;20206;-77
2021/01/21 07:54:31;;;;;;;54.10;29.38;;;;;;;2.39;82.52;95570.94;5056073;28;20211;-80
2021/01/21 07:56:57;;;;;;;47.67;29.35;;;;;;;2.46;82.21;95564.59;5056274;28;20252;-79
2021/01/21 07:59:23;;;;;;;45.50;28.70;;;;;;;2.63;82.62;95555.28;5056157;28;20609;-79
2021/01/21 08:01:57;;;;;;;56.50;32.70;;;;;;;2.79;81.70;95569.22;5056284;28;20445;-80
2021/01/21 08:04:23;;;;;;;42.63;26.63;;;;;;;2.96;82.09;95573.69;5055800;28;20452;-80
2021/01/21 08:06:57;;;;;;;51.13;28.50;;;;;;;3.08;81.06;95561.00;5055592;28;20453;-80
2021/01/21 08:09:24;;;;;;;42.87;26.57;;;;;;;3.25;80.96;95562.00;5055916;28;20498;-82
2021/01/21 08:11:52;;;;;;;45.80;27.30;;;;;;;3.32;80.28;95555.63;5056340;28;20440;-81
2021/01/21 08:14:18;;;;;;;43.07;23.10;;;;;;;3.42;79.69;95557.72;5056001;28;20449;-81
2021/01/21 08:16:45;;;;;;;37.20;21.07;;;;;;;3.55;79.77;95555.41;5055762;28;20534;-81
2021/01/21 08:19:13;;;;;;;33.57;22.03;;;;;;;3.69;79.10;95549.56;5067190;28;20465;-80
2021/01/21 08:21:40;;;;;;;41.60;22.33;;;;;;;3.85;79.09;95554.88;5066118;28;20520;-80
2021/01/21 08:24:08;;;;;;;34.63;22.70;;;;;;;3.97;78.25;95543.88;5055305;28;20957;-80
2021/01/21 08:26:37;;;;;;;37.83;21.97;;;;;;;4.04;78.20;95547.84;5055667;28;20452;-80
2021/01/21 08:29:09;;;;;;;34.63;21.27;;;;;;;4.17;77.68;95556.75;5055220;28;20788;-81
2021/01/21 08:31:42;;;;;;;32.63;20.40;;;;;;;4.26;78.05;95553.69;5055473;28;20828;-80
2021/01/21 08:34:15;;;;;;;36.33;21.10;;;;;;;4.35;77.23;95553.25;5054839;28;20567;-80
2021/01/21 08:36:42;;;;;;;30.13;19.40;;;;;;;4.43;77.05;95549.44;5054922;28;20489;-79
2021/01/21 08:39:11;;;;;;;38.07;23.80;;;;;;;4.41;75.86;95548.66;5019968;28;20987;-80
2021/01/21 08:41:40;;;;;;;36.03;25.03;;;;;;;4.38;75.13;95554.00;5055411;28;20495;-80
2021/01/21 08:44:06;;;;;;;40.93;22.43;;;;;;;4.43;74.58;95554.63;5020013;28;20486;-81
2021/01/21 08:46:33;;;;;;;49.43;28.13;;;;;;;4.34;75.77;95558.53;5054567;28;20433;-80
2021/01/21 08:49:08;;;;;;;63.33;31.73;;;;;;;4.42;74.82;95571.13;5065384;28;20453;-80
2021/01/21 08:51:37;;;;;;;56.23;31.23;;;;;;;4.41;75.75;95559.91;5074532;28;20448;-81
2021/01/21 08:54:11;;;;;;;67.27;39.83;;;;;;;4.45;76.88;95557.97;5074567;28;20554;-79
2021/01/21 08:56:39;;;;;;;82.80;47.20;;;;;;;4.58;78.43;95559.88;5074260;28;20553;-79
2021/01/21 08:59:27;;;;;;;69.63;42.60;;;;;;;4.54;76.80;95560.09;5074837;28;20506;-79
2021/01/21 09:01:54;;;;;;;82.13;45.43;;;;;;;4.41;76.20;95559.91;5074786;28;20448;-81
2021/01/21 09:04:25;;;;;;;67.97;41.23;;;;;;;4.14;78.46;95562.09;5038864;28;20428;-82
2021/01/21 09:06:55;;;;;;;62.63;38.53;;;;;;;3.76;80.10;95561.34;5074279;28;20445;-82
2021/01/21 09:09:30;;;;;;;71.83;38.93;;;;;;;3.77;80.86;95565.63;5074624;28;20549;-80
2021/01/21 09:11:58;;;;;;;60.50;34.17;;;;;;;3.60;81.36;95560.38;5074513;28;20448;-80
2021/01/21 09:14:26;;;;;;;62.40;34.87;;;;;;;3.62;81.96;95559.38;5038850;28;20780;-79
2021/01/21 09:16:53;;;;;;;62.10;35.43;;;;;;;3.53;83.81;95562.44;5074335;28;20484;-79
2021/01/21 09:19:42;;;;;;;87.93;48.17;;;;;;;3.53;84.18;95559.84;5074107;28;20513;-80
2021/01/21 09:22:09;;;;;;;55.63;34.07;;;;;;;3.51;84.24;95559.06;5074211;28;20560;-79
2021/01/21 09:24:56;;;;;;;58.83;34.20;;;;;;;3.55;84.44;95552.81;5073832;28;20448;-79
2021/01/21 09:27:25;;;;;;;61.40;33.90;;;;;;;3.69;84.20;95560.78;5074022;28;20790;-80
2021/01/21 09:29:53;;;;;;;58.77;32.70;;;;;;;3.74;84.17;95574.38;5072865;28;20505;-80
2021/01/21 09:32:20;;;;;;;63.30;34.70;;;;;;;3.83;83.85;95544.56;5072045;28;20456;-80
2021/01/21 09:34:59;;;;;;;55.80;32.83;;;;;;;3.42;85.23;95536.13;5073704;28;20440;-80
2021/01/21 09:37:26;;;;;;;62.53;37.27;;;;;;;3.62;84.60;95548.16;5072361;28;20480;-79
2021/01/21 09:39:53;;;;;;;58.10;34.33;;;;;;;3.24;85.28;95537.00;5073697;28;20471;-79
2021/01/21 09:42:20;;;;;;;50.70;32.07;;;;;;;3.44;85.38;95539.47;5074091;28;20868;-80
2021/01/21 09:44:48;;;;;;;48.43;33.10;;;;;;;3.62;85.46;95522.22;5072375;28;20815;-79
2021/01/21 09:47:15;;;;;;;50.20;31.00;;;;;;;3.78;84.60;95524.94;5072886;28;20448;-80
2021/01/21 09:49:42;;;;;;;51.43;29.97;;;;;;;3.81;83.26;95511.81;5072456;28;20970;-80
2021/01/21 09:52:08;;;;;;;58.93;34.67;;;;;;;3.80;83.20;95510.13;5073324;28;20933;-79
2021/01/21 09:54:35;;;;;;;73.00;38.43;;;;;;;3.99;83.01;95516.09;5073640;28;20513;-80
2021/01/21 09:57:02;;;;;;;64.97;37.43;;;;;;;4.08;82.25;95517.41;5073087;28;20492;-80
2021/01/21 09:59:28;;;;;;;61.43;37.23;;;;;;;4.23;82.12;95512.28;5073326;28;20788;-79
2021/01/21 10:01:56;;;;;;;57.33;36.43;;;;;;;4.34;82.00;95507.41;5038079;28;20440;-79
2021/01/21 10:04:22;;;;;;;66.57;39.07;;;;;;;4.44;80.85;95497.38;5038068;28;20443;-79
2021/01/21 10:06:48;;;;;;;95.57;51.47;;;;;;;4.30;81.11;95476.44;5073165;28;20446;-80
2021/01/21 10:09:15;;;;;;;113.83;61.90;;;;;;;4.32;80.76;95505.78;5072821;28;20445;-79
2021/01/21 10:11:41;;;;;;;131.70;65.57;;;;;;;4.37;81.40;95479.59;5037679;28;20463;-79
2021/01/21 10:14:08;;;;;;;114.43;66.00;;;;;;;4.30;82.04;95500.66;5073372;28;20820;-79
2021/01/21 10:16:34;;;;;;;124.10;67.77;;;;;;;4.46;81.79;95502.50;5072454;28;20495;-80
2021/01/21 10:19:01;;;;;;;89.73;56.63;;;;;;;4.35;81.34;95469.28;5072783;28;20444;-80
2021/01/21 10:21:28;;;;;;;89.07;52.20;;;;;;;4.33;81.31;95490.09;5073175;28;20791;-79
2021/01/21 10:23:55;;;;;;;88.87;50.97;;;;;;;4.56;81.38;95480.31;5072378;28;20469;-80
2021/01/21 10:26:21;;;;;;;80.93;49.97;;;;;;;4.69;79.40;95498.72;5073041;28;20505;-80
2021/01/21 10:28:48;;;;;;;82.33;48.40;;;;;;;4.83;78.26;95478.03;5072979;28;20452;-80
2021/01/21 10:31:14;;;;;;;100.63;48.10;;;;;;;4.81;77.07;95459.91;5073141;28;20445;-80
2021/01/21 10:33:42;;;;;;;75.00;48.70;;;;;;;4.92;76.83;95487.97;5072618;28;20448;-80
2021/01/21 10:36:11;;;;;;;82.80;42.90;;;;;;;4.93;76.75;95461.88;5034332;28;20588;-80
2021/01/21 10:38:39;;;;;;;68.83;40.47;;;;;;;5.01;75.68;95473.63;5052659;28;20442;-79
2021/01/21 10:41:07;;;;;;;80.70;44.63;;;;;;;5.12;74.76;95477.31;5052888;28;20463;-79
2021/01/21 10:43:33;;;;;;;66.87;39.40;;;;;;;4.91;75.08;95450.69;5053180;28;20456;-81
2021/01/21 10:46:00;;;;;;;67.73;40.60;;;;;;;5.02;74.63;95483.94;5052644;28;20524;-80
2021/01/21 10:48:27;;;;;;;69.43;37.80;;;;;;;5.15;74.58;95432.06;5052638;28;20494;-80
2021/01/21 10:50:53;;;;;;;67.43;41.57;;;;;;;5.07;74.74;95448.09;5052800;28;20498;-80
2021/01/21 10:53:21;;;;;;;64.13;38.37;;;;;;;5.26;73.87;95441.00;5055150;28;20880;-80
2021/01/21 10:55:47;;;;;;;58.93;34.23;;;;;;;5.41;73.84;95454.91;5071623;28;20464;-81
2021/01/21 10:58:14;;;;;;;45.93;27.90;;;;;;;5.56;70.76;95433.22;5070926;28;20471;-78
2021/01/21 11:00:40;;;;;;;36.77;22.37;;;;;;;5.67;69.16;95434.38;5052456;28;20445;-81
2021/01/21 11:03:07;;;;;;;46.30;28.60;;;;;;;5.71;69.76;95441.09;5052988;28;20448;-79
2021/01/21 11:05:33;;;;;;;47.93;27.87;;;;;;;5.78;69.62;95429.38;5052456;28;20449;-78
2021/01/21 11:07:59;;;;;;;36.00;23.23;;;;;;;5.78;68.11;95421.56;5065157;28;20486;-80
2021/01/21 11:10:27;;;;;;;38.63;21.30;;;;;;;5.75;69.38;95412.19;5033461;28;20449;-81
2021/01/21 11:12:53;;;;;;;45.80;23.27;;;;;;;5.72;69.41;95414.13;5052804;28;20961;-79
2021/01/21 11:15:20;;;;;;;31.10;21.90;;;;;;;5.82;69.50;95430.91;5052850;28;20456;-80
2021/01/21 11:17:47;;;;;;;31.23;19.37;;;;;;;6.00;69.13;95406.41;5052416;28;20976;-80
2021/01/21 11:20:14;;;;;;;35.13;17.73;;;;;;;6.00;66.74;95400.38;5052796;28;20449;-81
2021/01/21 11:22:41;;;;;;;26.73;15.07;;;;;;;6.10;66.24;95399.75;5059522;28;20483;-80
2021/01/21 11:25:09;;;;;;;36.03;17.80;;;;;;;6.17;66.41;95401.06;5072619;28;20946;-82
2021/01/21 11:27:37;;;;;;;34.33;18.23;;;;;;;6.24;65.78;95393.72;5076261;28;20474;-79
2021/01/21 11:30:04;;;;;;;23.73;14.30;;;;;;;6.24;64.71;95398.09;5083285;28;20445;-81
2021/01/21 11:32:30;;;;;;;23.53;13.53;;;;;;;6.29;65.04;95396.03;5073626;28;20835;-80